首页
METAR-TAF:

METAR-TAF

机场 :

汶萊國際機場

文莱, 文莱

纬度: 04-56N, 经度: 114-56E, 海拔: 22米

当前天气观测

该预报发布于42分钟前的01:30 UTC
风速5节,风向西南
温度 31°C
湿度 71%
气压 1010 hPa
能見度: 8000
少量云层高于1600英尺
多云层高于30000英尺

METAR: WBSB 220130Z 22005KT 8000 FEW016 BKN300 31/25 Q1010 NOSIG

时间: 10:12 (02:12 UTC)

预报

该预报发布于3小时和12分钟前的23:00 UTC
预报有效从22日的 00点(UTC)到 23日的 06点(UTC)
风速3节,风向西南
能見度: 8000
少量云层高于1500英尺
成为
从 22日的 04点(UTC)到 22日的 06点(UTC)
风速8节,风向西北
少量云层高于1600英尺
少量云层高于1700英尺, 积雨云.

TAF: WBSB 212300Z 2200/2306 22003KT 8000 FEW015 BECMG 2204/2206 32008KT FEW016 FEW017CB

超过4000个机场的气象观测和天气预报(METAR&TAF报告)。

可查询的气象台以黄色和红色小点在地图上表示。

将鼠标移到小点上方,可查看气象台名称。

然后点击查看天气观测和预报。

如需切换地图:点击带黑十字的绿色按钮放大地图;点击带横线的绿色按钮缩小地图;或者点击绿色箭头查看邻近地区的地图。


METAR-TAF: